Aviation Digital Data Service (ADDS)

Output produced by METARs form (0404 UTC 05 March 2015)
found at http://aviationweather.gov/adds/metars/
 
KSYR 050318Z 0503/0524 29010KT 5SM -SN OVC025 
     FM051300 30010KT P6SM OVC025